createdAt,value
2018-04-17T00:01:47.842Z,99.40
2018-04-17T00:04:17.420Z,99.50
2018-04-17T00:06:44.975Z,99.50
2018-04-17T00:09:12.547Z,99.30
2018-04-17T00:11:40.123Z,99.70
2018-04-17T00:14:07.701Z,99.60
2018-04-17T00:16:35.330Z,99.50
2018-04-17T00:19:02.901Z,99.40
2018-04-17T00:21:30.467Z,99.50
2018-04-17T00:23:58.039Z,99.70
2018-04-17T00:26:25.613Z,99.60
2018-04-17T00:28:53.185Z,99.70
2018-04-17T00:31:20.765Z,99.60
2018-04-17T00:33:49.173Z,99.50
2018-04-17T00:36:17.523Z,99.50
2018-04-17T00:38:45.902Z,99.50
2018-04-17T00:41:13.499Z,99.50
2018-04-17T00:43:41.074Z,99.60
2018-04-17T00:46:08.648Z,99.70
2018-04-17T00:48:36.238Z,99.50
2018-04-17T00:51:03.830Z,99.60
2018-04-17T00:53:43.171Z,99.50
2018-04-17T00:56:11.513Z,99.80
2018-04-17T00:58:39.077Z,99.70
2018-04-17T01:01:06.641Z,99.80
2018-04-17T01:03:34.208Z,99.90
2018-04-17T01:06:01.768Z,99.70
2018-04-17T01:08:29.372Z,99.50
2018-04-17T01:10:56.968Z,99.70
2018-04-17T01:13:24.547Z,99.70
2018-04-17T01:15:52.141Z,99.70
2018-04-17T01:18:19.715Z,99.90
2018-04-17T01:20:47.282Z,99.80
2018-04-17T01:23:14.982Z,99.90
2018-04-17T01:25:43.310Z,99.90
2018-04-17T01:28:10.874Z,99.90
2018-04-17T01:30:38.436Z,99.90
2018-04-17T01:33:06.034Z,99.90
2018-04-17T01:35:34.405Z,99.90
2018-04-17T01:38:01.983Z,99.90
2018-04-17T01:40:29.565Z,99.90
2018-04-17T01:42:57.896Z,99.90
2018-04-17T01:45:25.477Z,99.90
2018-04-17T01:47:53.053Z,99.90
2018-04-17T01:50:20.635Z,99.90
2018-04-17T01:52:48.216Z,99.90
2018-04-17T01:55:16.557Z,99.90
2018-04-17T01:57:44.132Z,99.90
2018-04-17T02:00:11.731Z,99.90
2018-04-17T02:02:40.056Z,99.90
2018-04-17T02:05:07.639Z,99.90
2018-04-17T02:07:35.187Z,99.90
2018-04-17T02:10:02.768Z,99.90
2018-04-17T02:12:30.363Z,99.90
2018-04-17T02:14:58.699Z,99.90
2018-04-17T02:17:26.271Z,99.90
2018-04-17T02:19:53.859Z,99.90
2018-04-17T02:22:21.429Z,99.90
2018-04-17T02:24:49.075Z,99.90
2018-04-17T02:27:16.652Z,99.90
2018-04-17T02:29:44.211Z,99.90
2018-04-17T02:32:11.813Z,99.90
2018-04-17T02:34:39.405Z,99.90
2018-04-17T02:37:06.980Z,99.90
2018-04-17T02:39:34.662Z,99.90
2018-04-17T02:42:02.277Z,99.90
2018-04-17T02:44:29.875Z,99.90
2018-04-17T02:46:57.447Z,99.90
2018-04-17T02:49:25.003Z,99.90
2018-04-17T02:51:52.567Z,99.90
2018-04-17T02:54:20.133Z,99.90
2018-04-17T02:56:47.726Z,99.90
2018-04-17T02:59:15.302Z,99.90
2018-04-17T03:01:42.872Z,99.90
2018-04-17T03:04:11.218Z,99.90
2018-04-17T03:06:38.806Z,99.90
2018-04-17T03:09:06.416Z,99.90
2018-04-17T03:11:33.978Z,99.90
2018-04-17T03:14:01.574Z,99.90
2018-04-17T03:16:29.139Z,99.90
2018-04-17T03:18:56.709Z,99.90
2018-04-17T03:21:24.282Z,99.90
2018-04-17T03:23:51.864Z,99.90
2018-04-17T03:26:20.325Z,99.90
2018-04-17T03:28:47.903Z,99.90
2018-04-17T03:31:15.498Z,99.90
2018-04-17T03:33:43.837Z,99.90
2018-04-17T03:36:12.406Z,99.90
2018-04-17T03:38:39.983Z,99.90
2018-04-17T03:41:08.453Z,99.90
2018-04-17T03:43:36.036Z,99.90
2018-04-17T03:46:03.724Z,99.90
2018-04-17T03:48:31.303Z,99.90
2018-04-17T03:50:58.884Z,99.90
2018-04-17T03:53:27.221Z,99.90
2018-04-17T03:55:54.838Z,99.90
2018-04-17T03:58:22.419Z,99.90
2018-04-17T04:00:50.031Z,99.90
2018-04-17T04:03:18.167Z,99.90
2018-04-17T04:05:45.754Z,99.90
2018-04-17T04:08:13.311Z,99.90
2018-04-17T04:10:40.894Z,99.90
2018-04-17T04:13:08.488Z,99.90
2018-04-17T04:15:36.889Z,99.90
2018-04-17T04:18:16.332Z,99.90
2018-04-17T04:20:55.661Z,99.90
2018-04-17T04:23:34.983Z,99.90
2018-04-17T04:26:15.093Z,99.90
2018-04-17T04:28:42.657Z,99.90
2018-04-17T04:31:10.223Z,99.90
2018-04-17T04:33:37.810Z,99.90
2018-04-17T04:36:05.389Z,99.90
2018-04-17T04:38:33.739Z,99.90
2018-04-17T04:41:01.318Z,99.90
2018-04-17T04:43:28.897Z,99.90
2018-04-17T04:45:57.244Z,99.90
2018-04-17T04:48:24.818Z,99.90
2018-04-17T04:50:52.420Z,99.90
2018-04-17T04:53:20.758Z,99.90
2018-04-17T04:55:48.329Z,99.90
2018-04-17T04:58:15.929Z,99.90
2018-04-17T05:00:43.520Z,99.90
2018-04-17T05:03:11.105Z,99.90
2018-04-17T05:05:38.705Z,99.90
2018-04-17T05:08:06.282Z,99.90
2018-04-17T05:10:34.722Z,99.90
2018-04-17T05:13:02.271Z,99.90
2018-04-17T05:15:29.836Z,99.90
2018-04-17T05:17:57.437Z,99.90
2018-04-17T05:20:25.042Z,99.90
2018-04-17T05:22:52.663Z,99.90
2018-04-17T05:25:20.228Z,99.90
2018-04-17T05:27:47.869Z,99.90
2018-04-17T05:30:16.499Z,99.90
2018-04-17T05:32:44.100Z,99.90
2018-04-17T05:35:11.659Z,99.90
2018-04-17T05:37:39.242Z,99.90
2018-04-17T05:40:06.857Z,99.90
2018-04-17T05:42:34.424Z,99.90
2018-04-17T05:45:02.795Z,99.90
2018-04-17T05:47:30.380Z,99.90
2018-04-17T05:49:58.731Z,99.90
2018-04-17T05:52:26.475Z,99.90
2018-04-17T05:54:54.060Z,99.90
2018-04-17T05:57:21.640Z,99.90
2018-04-17T05:59:49.217Z,99.90
2018-04-17T06:02:16.780Z,99.90
2018-04-17T06:04:44.347Z,99.90
2018-04-17T06:07:11.971Z,99.90
2018-04-17T06:09:39.558Z,99.90
2018-04-17T06:12:07.137Z,99.90
2018-04-17T06:14:34.768Z,99.90
2018-04-17T06:17:02.454Z,99.90
2018-04-17T06:19:30.071Z,99.90
2018-04-17T06:21:57.656Z,99.90
2018-04-17T06:24:25.248Z,99.90
2018-04-17T06:26:52.854Z,99.90
2018-04-17T06:29:21.373Z,99.90
2018-04-17T06:31:48.967Z,99.90
2018-04-17T06:34:16.916Z,99.90
2018-04-17T06:36:44.484Z,99.90
2018-04-17T06:39:12.122Z,99.90
2018-04-17T06:41:39.720Z,99.90
2018-04-17T06:44:07.762Z,99.90
2018-04-17T06:46:35.337Z,99.90
2018-04-17T06:49:02.912Z,99.90
2018-04-17T06:51:31.277Z,99.90
2018-04-17T06:53:58.847Z,99.90
2018-04-17T06:56:26.439Z,99.90
2018-04-17T06:58:54.019Z,99.90
2018-04-17T07:01:21.609Z,99.90
2018-04-17T07:03:49.208Z,99.90
2018-04-17T07:06:16.803Z,99.90
2018-04-17T07:08:44.389Z,99.80
2018-04-17T07:11:11.956Z,99.60
2018-04-17T07:13:39.530Z,99.60
2018-04-17T07:16:07.886Z,99.90
2018-04-17T07:18:36.159Z,99.80
2018-04-17T07:21:04.499Z,99.30
2018-04-17T07:23:32.874Z,98.90
2018-04-17T07:26:01.301Z,99.20
2018-04-17T07:28:28.909Z,99.10
2018-04-17T07:30:56.491Z,98.40
2018-04-17T07:33:24.856Z,98.50
2018-04-17T07:35:52.436Z,98.40
2018-04-17T07:38:20.785Z,98.20
2018-04-17T07:40:48.442Z,98.20
2018-04-17T07:43:16.053Z,98.20
2018-04-17T07:45:44.420Z,97.30
2018-04-17T07:48:24.732Z,97.50
2018-04-17T07:50:52.378Z,97.50
2018-04-17T07:53:19.998Z,97.30
2018-04-17T07:55:47.592Z,97.20
2018-04-17T07:58:15.960Z,96.70
2018-04-17T08:00:44.037Z,96.70
2018-04-17T08:03:12.452Z,96.20
2018-04-17T08:05:40.021Z,96.20
2018-04-17T08:08:07.620Z,96.30
2018-04-17T08:10:36.113Z,95.80
2018-04-17T08:13:03.727Z,95.50
2018-04-17T08:15:31.357Z,95.80
2018-04-17T08:17:58.953Z,95.30
2018-04-17T08:20:27.313Z,95.30
2018-04-17T08:22:54.897Z,95.20
2018-04-17T08:25:23.261Z,94.30
2018-04-17T08:27:51.714Z,92.00
2018-04-17T08:30:19.302Z,91.90
2018-04-17T08:32:47.012Z,91.90
2018-04-17T08:35:14.610Z,91.70
2018-04-17T08:37:43.084Z,93.20
2018-04-17T08:40:10.670Z,92.10
2018-04-17T08:42:39.052Z,92.20
2018-04-17T08:45:06.643Z,92.50
2018-04-17T08:47:34.282Z,92.00
2018-04-17T08:50:01.905Z,91.50
2018-04-17T08:52:29.529Z,90.40
2018-04-17T08:54:57.106Z,89.00
2018-04-17T08:57:25.505Z,89.10
2018-04-17T08:59:53.119Z,88.10
2018-04-17T09:02:20.745Z,88.10
2018-04-17T09:04:49.039Z,89.10
2018-04-17T09:07:17.251Z,84.60
2018-04-17T09:09:44.876Z,84.70
2018-04-17T09:12:12.491Z,86.60
2018-04-17T09:14:40.108Z,84.10
2018-04-17T09:17:07.783Z,82.40
2018-04-17T09:19:35.327Z,82.80
2018-04-17T09:22:02.885Z,82.50
2018-04-17T09:24:31.260Z,83.00
2018-04-17T09:26:58.886Z,83.00
2018-04-17T09:29:26.490Z,81.20
2018-04-17T09:31:54.255Z,79.50
2018-04-17T09:34:21.953Z,80.20
2018-04-17T09:36:49.614Z,78.60
2018-04-17T09:39:17.189Z,76.40
2018-04-17T09:41:44.833Z,76.10
2018-04-17T09:44:14.225Z,77.30
2018-04-17T09:46:41.862Z,77.20
2018-04-17T09:49:09.508Z,76.00
2018-04-17T09:51:37.113Z,75.80
2018-04-17T09:54:04.763Z,74.20
2018-04-17T09:56:32.385Z,73.90
2018-04-17T09:58:59.998Z,75.60
2018-04-17T10:01:27.626Z,75.30
2018-04-17T10:03:55.218Z,76.50
2018-04-17T10:06:22.817Z,73.80
2018-04-17T10:08:51.372Z,72.10
2018-04-17T10:11:19.691Z,71.10
2018-04-17T10:13:47.344Z,71.00
2018-04-17T10:16:15.726Z,72.80
2018-04-17T10:18:43.325Z,72.60
2018-04-17T10:21:10.916Z,71.50
2018-04-17T10:23:38.512Z,70.10
2018-04-17T10:26:06.081Z,68.10
2018-04-17T10:28:33.741Z,70.90
2018-04-17T10:31:01.361Z,69.60
2018-04-17T10:33:28.961Z,66.50
2018-04-17T10:35:56.581Z,67.90
2018-04-17T10:38:24.185Z,64.30
2018-04-17T10:40:52.496Z,64.00
2018-04-17T10:43:20.938Z,63.70
2018-04-17T10:45:48.981Z,63.60
2018-04-17T10:48:17.347Z,62.30
2018-04-17T10:50:44.945Z,62.10
2018-04-17T10:53:12.599Z,65.20
2018-04-17T10:55:40.230Z,62.30
2018-04-17T10:58:08.468Z,62.30
2018-04-17T11:00:36.086Z,60.90
2018-04-17T11:03:03.669Z,60.00
2018-04-17T11:05:31.261Z,59.60
2018-04-17T11:07:58.873Z,59.00
2018-04-17T11:10:26.508Z,59.90
2018-04-17T11:12:54.103Z,59.70
2018-04-17T11:15:21.693Z,59.30
2018-04-17T11:17:50.041Z,58.40
2018-04-17T11:20:17.737Z,58.30
2018-04-17T11:22:46.421Z,57.70
2018-04-17T11:25:14.921Z,59.40
2018-04-17T11:27:42.560Z,59.10
2018-04-17T11:30:10.308Z,58.50
2018-04-17T11:32:37.936Z,59.30
2018-04-17T11:35:05.542Z,55.60
2018-04-17T11:37:33.156Z,57.20
2018-04-17T11:40:00.885Z,56.60
2018-04-17T11:42:28.681Z,55.20
2018-04-17T11:44:56.277Z,55.40
2018-04-17T11:47:23.901Z,54.90
2018-04-17T11:49:51.504Z,55.10
2018-04-17T11:52:19.139Z,55.00
2018-04-17T11:54:47.484Z,55.80
2018-04-17T11:57:15.083Z,55.10
2018-04-17T11:59:42.679Z,56.70
2018-04-17T12:02:11.231Z,56.00
2018-04-17T12:04:38.921Z,55.40
2018-04-17T12:07:07.313Z,54.00
2018-04-17T12:09:34.891Z,53.90
2018-04-17T12:12:02.534Z,54.80
2018-04-17T12:14:30.806Z,53.00
2018-04-17T12:16:59.731Z,53.40
2018-04-17T12:19:27.333Z,53.30
2018-04-17T12:21:54.917Z,55.00
2018-04-17T12:24:23.365Z,56.20
2018-04-17T12:26:50.954Z,56.20
2018-04-17T12:29:18.601Z,55.30
2018-04-17T12:31:46.319Z,53.90
2018-04-17T12:34:14.671Z,52.70
2018-04-17T12:36:42.239Z,52.70
2018-04-17T12:39:09.879Z,55.80
2018-04-17T12:41:37.465Z,56.40
2018-04-17T12:44:05.676Z,54.30
2018-04-17T12:46:34.169Z,53.20
2018-04-17T12:49:02.761Z,53.20
2018-04-17T12:51:30.374Z,53.50
2018-04-17T12:53:57.989Z,54.00
2018-04-17T12:56:25.588Z,53.50
2018-04-17T12:58:53.388Z,52.70
2018-04-17T13:01:22.275Z,52.00
2018-04-17T13:03:49.853Z,52.40
2018-04-17T13:06:17.475Z,52.70
2018-04-17T13:08:45.592Z,52.30
2018-04-17T13:11:13.999Z,50.70
2018-04-17T13:13:42.445Z,52.30
2018-04-17T13:16:10.031Z,52.30
2018-04-17T13:18:38.412Z,50.00
2018-04-17T13:21:06.095Z,49.80
2018-04-17T13:23:33.806Z,50.70
2018-04-17T13:26:01.515Z,51.50
2018-04-17T13:28:29.138Z,50.10
2018-04-17T13:30:56.731Z,49.90
2018-04-17T13:33:24.339Z,48.50
2018-04-17T13:35:51.949Z,47.60
2018-04-17T13:38:20.312Z,46.30
2018-04-17T13:40:47.914Z,47.90
2018-04-17T13:43:16.286Z,46.80
2018-04-17T13:45:44.727Z,47.70
2018-04-17T13:48:12.486Z,47.60
2018-04-17T13:50:40.867Z,50.10
2018-04-17T13:53:09.280Z,48.10
2018-04-17T13:55:36.944Z,48.00
2018-04-17T13:58:05.750Z,49.30
2018-04-17T14:00:33.488Z,49.70
2018-04-17T14:03:01.124Z,49.80
2018-04-17T14:05:28.825Z,48.80
2018-04-17T14:07:56.482Z,49.50
2018-04-17T14:10:24.152Z,49.00
2018-04-17T14:12:52.405Z,49.60
2018-04-17T14:15:19.998Z,49.40
2018-04-17T14:17:47.710Z,50.80
2018-04-17T14:20:15.300Z,50.10
2018-04-17T14:22:42.910Z,49.20
2018-04-17T14:25:11.331Z,49.10
2018-04-17T14:27:38.971Z,49.60
2018-04-17T14:30:06.582Z,49.60
2018-04-17T14:32:34.197Z,49.00
2018-04-17T14:35:01.908Z,48.80
2018-04-17T14:37:29.586Z,50.40
2018-04-17T14:39:58.758Z,49.50
2018-04-17T14:42:26.600Z,50.00
2018-04-17T14:44:54.268Z,50.50
2018-04-17T14:47:21.897Z,50.50
2018-04-17T14:49:49.535Z,50.00
2018-04-17T14:52:17.171Z,50.60
2018-04-17T14:54:45.903Z,49.60
2018-04-17T14:57:13.613Z,49.50
2018-04-17T14:59:41.239Z,50.60
2018-04-17T15:02:10.007Z,48.70
2018-04-17T15:04:37.659Z,48.70
2018-04-17T15:07:05.309Z,49.60
2018-04-17T15:09:32.965Z,48.20
2018-04-17T15:12:00.659Z,49.70
2018-04-17T15:14:28.277Z,48.90
2018-04-17T15:16:55.959Z,48.60
2018-04-17T15:19:24.382Z,48.00
2018-04-17T15:21:52.017Z,47.90
2018-04-17T15:24:19.674Z,46.20
2018-04-17T15:26:47.323Z,46.70
2018-04-17T15:29:15.788Z,45.50
2018-04-17T15:31:43.443Z,45.50
2018-04-17T15:34:11.044Z,44.70
2018-04-17T15:36:39.395Z,43.60
2018-04-17T15:39:07.896Z,43.40
2018-04-17T15:41:36.305Z,42.90
2018-04-17T15:44:04.711Z,43.30
2018-04-17T15:46:32.361Z,42.70
2018-04-17T15:48:59.973Z,42.20
2018-04-17T15:51:27.567Z,43.20
2018-04-17T15:53:55.181Z,42.00
2018-04-17T15:56:22.811Z,42.30
2018-04-17T15:58:51.196Z,42.00
2018-04-17T16:01:19.603Z,41.90
2018-04-17T16:03:48.176Z,41.80
2018-04-17T16:06:16.460Z,42.20
2018-04-17T16:08:44.078Z,40.80
2018-04-17T16:11:11.733Z,41.30
2018-04-17T16:13:39.384Z,41.50
2018-04-17T16:16:07.001Z,41.70
2018-04-17T16:18:34.593Z,41.60
2018-04-17T16:21:02.833Z,40.10
2018-04-17T16:23:30.446Z,41.90
2018-04-17T16:25:58.028Z,41.90
2018-04-17T16:28:25.693Z,42.60
2018-04-17T16:30:53.296Z,41.90
2018-04-17T16:33:20.892Z,44.00
2018-04-17T16:35:49.282Z,45.60
2018-04-17T16:38:16.898Z,45.50
2018-04-17T16:40:44.764Z,44.90
2018-04-17T16:43:12.388Z,45.60
2018-04-17T16:45:40.050Z,46.70
2018-04-17T16:48:08.453Z,47.40
2018-04-17T16:50:36.062Z,47.20
2018-04-17T16:53:03.653Z,47.30
2018-04-17T16:55:31.271Z,47.70
2018-04-17T16:57:59.443Z,48.60
2018-04-17T17:00:27.019Z,50.20
2018-04-17T17:02:54.721Z,49.80
2018-04-17T17:05:22.310Z,49.70
2018-04-17T17:07:49.953Z,50.40
2018-04-17T17:10:18.324Z,51.50
2018-04-17T17:12:46.758Z,51.00
2018-04-17T17:15:14.352Z,51.00
2018-04-17T17:17:42.030Z,50.90
2018-04-17T17:20:09.698Z,51.70
2018-04-17T17:22:37.310Z,52.10
2018-04-17T17:25:04.924Z,52.80
2018-04-17T17:27:32.551Z,52.40
2018-04-17T17:30:00.172Z,51.80
2018-04-17T17:32:28.580Z,53.40
2018-04-17T17:34:56.187Z,53.40
2018-04-17T17:37:24.640Z,54.20
2018-04-17T17:39:52.271Z,53.70
2018-04-17T17:42:20.667Z,54.90
2018-04-17T17:44:49.046Z,53.20
2018-04-17T17:47:17.442Z,55.60
2018-04-17T17:49:45.807Z,54.40
2018-04-17T17:52:13.399Z,54.40
2018-04-17T17:54:41.001Z,55.40
2018-04-17T17:57:08.596Z,54.20
2018-04-17T17:59:36.969Z,56.00
2018-04-17T18:02:04.645Z,56.00
2018-04-17T18:04:33.048Z,57.30
2018-04-17T18:07:00.701Z,57.30
2018-04-17T18:09:28.258Z,56.80
2018-04-17T18:11:55.884Z,58.60
2018-04-17T18:14:23.521Z,59.70
2018-04-17T18:16:51.926Z,58.50
2018-04-17T18:19:19.621Z,58.50
2018-04-17T18:21:47.208Z,60.10
2018-04-17T18:24:14.822Z,61.00
2018-04-17T18:26:42.418Z,62.20
2018-04-17T18:29:10.017Z,62.90
2018-04-17T18:31:38.581Z,68.50
2018-04-17T18:34:06.229Z,67.70
2018-04-17T18:36:33.821Z,67.80
2018-04-17T18:39:01.466Z,70.20
2018-04-17T18:41:29.071Z,71.70
2018-04-17T18:43:57.126Z,73.40
2018-04-17T18:46:24.731Z,74.20
2018-04-17T18:48:52.346Z,74.00
2018-04-17T18:51:19.913Z,76.30
2018-04-17T18:53:47.506Z,77.70
2018-04-17T18:56:15.902Z,79.60
2018-04-17T18:58:43.517Z,79.60
2018-04-17T19:01:11.120Z,79.20
2018-04-17T19:03:39.489Z,81.20
2018-04-17T19:06:07.096Z,81.10
2018-04-17T19:08:34.746Z,82.10
2018-04-17T19:11:02.372Z,81.50
2018-04-17T19:13:29.997Z,82.20
2018-04-17T19:15:57.633Z,83.10
2018-04-17T19:18:26.063Z,84.30
2018-04-17T19:20:53.681Z,84.20
2018-04-17T19:23:22.052Z,84.80
2018-04-17T19:25:49.671Z,84.10
2018-04-17T19:28:17.335Z,84.60
2018-04-17T19:30:45.008Z,84.30
2018-04-17T19:33:12.689Z,84.50
2018-04-17T19:35:40.308Z,85.70
2018-04-17T19:38:08.830Z,87.20
2018-04-17T19:40:36.441Z,87.10
2018-04-17T19:43:04.872Z,87.80
2018-04-17T19:45:32.543Z,87.70
2018-04-17T19:48:00.141Z,86.50
2018-04-17T19:50:28.556Z,87.70
2018-04-17T19:52:56.943Z,87.10
2018-04-17T19:55:25.295Z,88.20
2018-04-17T19:57:52.889Z,88.20
2018-04-17T20:00:20.563Z,87.20
2018-04-17T20:02:48.157Z,88.30
2018-04-17T20:05:15.796Z,88.90
2018-04-17T20:07:43.502Z,88.40
2018-04-17T20:10:11.146Z,88.10
2018-04-17T20:12:38.770Z,89.40
2018-04-17T20:15:06.390Z,90.00
2018-04-17T20:17:34.772Z,90.50
2018-04-17T20:20:02.391Z,90.60
2018-04-17T20:22:30.067Z,90.40
2018-04-17T20:24:58.446Z,90.50
2018-04-17T20:27:26.885Z,90.20
2018-04-17T20:29:54.628Z,90.20
2018-04-17T20:32:22.226Z,90.60
2018-04-17T20:34:49.883Z,90.40
2018-04-17T20:37:17.567Z,90.50
2018-04-17T20:39:45.206Z,90.70
2018-04-17T20:42:12.859Z,91.10
2018-04-17T20:44:41.184Z,91.50
2018-04-17T20:47:08.843Z,91.40
2018-04-17T20:49:36.418Z,91.80
2018-04-17T20:52:04.016Z,91.40
2018-04-17T20:54:32.408Z,91.80
2018-04-17T20:57:00.000Z,91.70
2018-04-17T20:59:27.601Z,92.00
2018-04-17T21:01:55.274Z,91.80
2018-04-17T21:04:22.893Z,91.70
2018-04-17T21:06:50.545Z,92.10
2018-04-17T21:09:18.150Z,91.60
2018-04-17T21:11:45.777Z,92.00
2018-04-17T21:14:14.119Z,91.70
2018-04-17T21:16:41.755Z,91.80
2018-04-17T21:19:09.351Z,92.30
2018-04-17T21:21:36.965Z,92.20
2018-04-17T21:24:04.573Z,92.70
2018-04-17T21:26:32.191Z,92.50
2018-04-17T21:28:59.784Z,92.60
2018-04-17T21:31:27.408Z,93.30
2018-04-17T21:33:55.096Z,93.00
2018-04-17T21:36:22.693Z,93.10
2018-04-17T21:38:50.330Z,93.30
2018-04-17T21:41:17.940Z,93.30
2018-04-17T21:43:45.532Z,93.10
2018-04-17T21:46:13.163Z,93.60
2018-04-17T21:48:40.742Z,93.50
2018-04-17T21:51:08.349Z,93.80
2018-04-17T21:53:35.963Z,93.80
2018-04-17T21:56:03.564Z,94.00
2018-04-17T21:58:31.218Z,94.00
2018-04-17T22:01:00.331Z,94.20
2018-04-17T22:03:28.687Z,94.40
2018-04-17T22:05:57.091Z,94.40
2018-04-17T22:08:25.460Z,94.20
2018-04-17T22:10:53.083Z,94.20
2018-04-17T22:13:20.668Z,94.40
2018-04-17T22:15:48.269Z,94.40
2018-04-17T22:18:16.623Z,94.60
2018-04-17T22:20:44.233Z,94.60
2018-04-17T22:23:11.894Z,94.70
2018-04-17T22:25:39.496Z,94.50
2018-04-17T22:28:07.126Z,94.90
2018-04-17T22:30:34.730Z,94.80
2018-04-17T22:33:02.382Z,94.60
2018-04-17T22:35:30.411Z,94.50
2018-04-17T22:37:58.822Z,94.80
2018-04-17T22:40:26.447Z,94.80
2018-04-17T22:42:54.061Z,94.90
2018-04-17T22:45:21.695Z,94.90
2018-04-17T22:47:50.066Z,95.30
2018-04-17T22:50:17.691Z,95.30
2018-04-17T22:52:45.327Z,95.10
2018-04-17T22:55:12.995Z,95.10
2018-04-17T22:57:40.591Z,94.90
2018-04-17T23:00:08.318Z,94.90
2018-04-17T23:02:36.760Z,95.50
2018-04-17T23:05:04.364Z,95.40
2018-04-17T23:07:31.972Z,95.10
2018-04-17T23:09:59.543Z,95.30
2018-04-17T23:12:27.144Z,95.30
2018-04-17T23:14:54.751Z,95.40
2018-04-17T23:17:23.138Z,95.50
2018-04-17T23:19:50.745Z,95.60
2018-04-17T23:22:18.361Z,95.50
2018-04-17T23:24:45.943Z,95.50
2018-04-17T23:27:13.559Z,95.80
2018-04-17T23:29:41.207Z,95.90
2018-04-17T23:32:08.866Z,95.70
2018-04-17T23:34:36.465Z,96.00
2018-04-17T23:37:04.073Z,95.90
2018-04-17T23:39:31.678Z,96.00
2018-04-17T23:41:59.268Z,96.20
2018-04-17T23:44:27.614Z,96.50
2018-04-17T23:46:55.897Z,96.50
2018-04-17T23:49:23.538Z,96.40
2018-04-17T23:51:51.135Z,96.40
2018-04-17T23:54:18.750Z,96.60
2018-04-17T23:56:46.351Z,96.60
2018-04-17T23:59:13.990Z,96.50
